VLVT Airport Information

Runway Information
Runway 13 Length 9843 ft width 148 ft
Elevation 563 ft Threshold 0 ft Heading 135
Runway 31 Length 9843 ft Width 148 ft
Elevation 563 ft Threshold 0 ft Heading 315
Airport Frequencies
Type APP Name VIENTIANE Frequency 119.7 MHZ
Type TWR Name VIENTIANE Frequency 118.1 MHZ
Airport Navaids
Type NDB Name Vientiane Frequency 205 KHZ
Type NDB Name Thangone Frequency 405 KHZ
Type VOR-DME Name Vientiane Frequency 117500 KHZ
Type NDB Name Wattay Frequency 389 KHZ
Airport Weather Information & NOTAM
ADDS - METARS form results

(0525 UTC 19 September 2020)
Data provider http://aviationweather.gov/metar/data/
 
METAR text: VLVT 190500Z 09010KT 8000 BKN010 OVC083 26/25 Q1005 NOSIG
Conditions at: VLVT (VIENTIANE/WATTAY, LA) observed 0500 UTC 19 September 2020
Temperature: 26.0°C (79°F)
Dewpoint: 25.0°C (77°F) [RH = 94%]
Pressure (altimeter): 29.68 inches Hg (1005.0 mb)
Winds: from the E (90 degrees) at 12 MPH (10 knots; 5.1 m/s)
Visibility: 5 miles ( 8 km)
Ceiling: 1000 feet AGL
Clouds: broken clouds at 1000 feet AGL
overcast cloud deck at 8300 feet AGL
Weather: no significant weather observed at this time

METAR text: VLVT 190430Z 09016KT 8000 BKN010 OVC083 26/24 Q1005 NOSIG
Conditions at: VLVT (VIENTIANE/WATTAY, LA) observed 0430 UTC 19 September 2020
Temperature: 26.0°C (79°F)
Dewpoint: 24.0°C (75°F) [RH = 89%]
Pressure (altimeter): 29.68 inches Hg (1005.0 mb)
Winds: from the E (90 degrees) at 18 MPH (16 knots; 8.2 m/s)
Visibility: 5 miles ( 8 km)
Ceiling: 1000 feet AGL
Clouds: broken clouds at 1000 feet AGL
overcast cloud deck at 8300 feet AGL
Weather: no significant weather observed at this time

Forecast for: VLVT (VIENTIANE/WATTAY, LA)
Text: TAF VLVT 182300Z 1900/1924 06010KT 8000 SCT016 SCT040 BKN083
Forecast period: 0000 UTC 19 September 2020 to 0000 UTC 20 September 2020
Forecast type: FROM: standard forecast or significant change
Winds: from the ENE (60 degrees) at 12 MPH (10 knots; 5.1 m/s)
Visibility: 5 miles (8 km)
Ceiling: 8300 feet AGL
Clouds: scattered clouds at 1600 feet AGL
scattered clouds at 4000 feet AGL
broken clouds at 8300 feet AGL
Weather: no significant weather forecast for this period
Text: TEMPO 1900/1904 09014KT 4000 -RA BKN010 OVC083
Forecast period: 0000 to 0400 UTC 19 September 2020
Forecast type: TEMPORARY: The following changes expected for less than half the time period
Winds: from the E (90 degrees) at 16 MPH (14 knots; 7.2 m/s)
Visibility: 2.49 miles (4.01 km)
Ceiling: 1000 feet AGL
Clouds: broken clouds at 1000 feet AGL
overcast cloud deck at 8300 feet AGL
Weather: -RA  (light rain)